Dobbin, Texas
Current Conditions -  °F | °C
As of 7:53 AM on Thursday 23 Oct 2014 (Local Time) from KCXO Reporting Station
Few Clouds Few Clouds  
Wind Chill: 59°   Ceiling: Unl
Heat Index: 59°   Visibility: 10mi
Dew Point: 53°   Wind: 3mph
Humidity: 81%   Direction: NA
Pressure: 30.12"   Gusts: NA
Location:  30.37°N, 95.78°W
Report Text: KCXO 231253Z VRB03KT 10SM FEW042 15/12 A3012 RMK AO2 SLP198 T01500117
Loading
Personal Weather Stations






























Interactive Weather Map New forecast layout! Learn more

10-Day Weather Forecast

Advertisements
Track Severe Weather on mobile